createdAt,value
2022-07-27T00:00:08.606Z,25.5
2022-07-27T00:02:23.423Z,24.3
2022-07-27T00:04:38.697Z,25.4
2022-07-27T00:06:53.155Z,24.8
2022-07-27T00:09:08.316Z,23.8
2022-07-27T00:11:22.790Z,24.4
2022-07-27T00:13:37.753Z,23.6
2022-07-27T00:15:52.551Z,22.9
2022-07-27T00:18:07.413Z,23.3
2022-07-27T00:20:23.004Z,22.7
2022-07-27T00:22:36.987Z,22.6
2022-07-27T00:24:51.937Z,23.1
2022-07-27T00:27:06.738Z,23.2
2022-07-27T00:29:21.518Z,23.1
2022-07-27T00:31:36.592Z,23.2
2022-07-27T00:33:51.291Z,23.2
2022-07-27T00:36:06.207Z,23.1
2022-07-27T00:38:21.157Z,23.3
2022-07-27T00:40:35.841Z,23.4
2022-07-27T00:42:50.703Z,23.1
2022-07-27T00:45:05.610Z,23.3
2022-07-27T00:47:20.455Z,23.1
2022-07-27T00:49:35.259Z,23.3
2022-07-27T00:51:50.018Z,23.3
2022-07-27T00:54:04.861Z,23.3
2022-07-27T00:56:19.769Z,23.4
2022-07-27T00:58:46.672Z,23.4
2022-07-27T01:01:01.462Z,23.3
2022-07-27T01:03:16.636Z,23.1
2022-07-27T01:05:36.251Z,23.1
2022-07-27T01:07:46.109Z,23.8
2022-07-27T01:10:00.965Z,23.8
2022-07-27T01:12:15.844Z,23.1
2022-07-27T01:14:30.638Z,22.6
2022-07-27T01:16:45.555Z,23
2022-07-27T01:19:00.336Z,25.2
2022-07-27T01:21:15.327Z,25.1
2022-07-27T01:23:30.112Z,23.1
2022-07-27T01:25:44.982Z,23.8
2022-07-27T01:27:59.753Z,24.3
2022-07-27T01:30:14.551Z,22.8
2022-07-27T01:32:29.396Z,23.1
2022-07-27T01:34:44.241Z,23.1
2022-07-27T01:36:59.097Z,23.8
2022-07-27T01:39:14.272Z,23.3
2022-07-27T01:41:28.785Z,23.3
2022-07-27T01:43:43.651Z,23.8
2022-07-27T01:45:58.471Z,24.3
2022-07-27T01:48:13.472Z,23.2
2022-07-27T01:50:28.214Z,23.1
2022-07-27T03:37:37.403Z,23.8
2022-07-27T03:39:52.258Z,22.9
2022-07-27T03:42:07.006Z,21.7
2022-07-27T03:44:21.851Z,22.2
2022-07-27T03:46:36.908Z,22.3
2022-07-27T03:48:51.607Z,22.8
2022-07-27T03:51:06.403Z,22.8
2022-07-27T03:53:21.306Z,22.8
2022-07-27T03:55:36.172Z,23.9
2022-07-27T03:57:51.079Z,23.1
2022-07-27T04:00:05.945Z,22.6
2022-07-27T04:02:20.651Z,23.3
2022-07-27T04:04:35.503Z,23.3
2022-07-27T04:06:50.395Z,23.6
2022-07-27T04:09:08.440Z,23.8
2022-07-27T04:11:19.971Z,24.2
2022-07-27T04:13:34.800Z,24.6
2022-07-27T04:15:49.659Z,24.6
2022-07-27T04:18:28.503Z,24.6
2022-07-27T04:20:43.393Z,25
2022-07-27T04:23:03.352Z,24.9
2022-07-27T04:25:18.235Z,25.6
2022-07-27T04:27:33.041Z,25.6
2022-07-27T04:29:47.896Z,25.6
2022-07-27T04:32:02.815Z,25.1
2022-07-27T04:34:17.625Z,26.3
2022-07-27T04:36:32.417Z,25.9
2022-07-27T04:38:47.304Z,26.1
2022-07-27T04:41:02.289Z,26.5
2022-07-27T04:43:17.200Z,26.6
2022-07-27T04:45:31.869Z,26.5
2022-07-27T04:47:46.777Z,26.7
2022-07-27T04:50:01.492Z,26.6
2022-07-27T04:52:16.424Z,26.9
2022-07-27T04:54:31.260Z,26.9
2022-07-27T04:56:45.968Z,26.4
2022-07-27T04:59:00.837Z,26.9
2022-07-27T05:01:15.797Z,26.6
2022-07-27T05:03:30.608Z,26.6
2022-07-27T05:05:49.683Z,27.7
2022-07-27T05:08:00.379Z,26.4
2022-07-27T05:10:19.666Z,25.9
2022-07-27T05:12:30.095Z,26.7
2022-07-27T05:14:44.889Z,27.1
2022-07-27T05:17:12.543Z,27
2022-07-27T05:19:40.043Z,26.7
2022-07-27T05:22:00.352Z,26.9
2022-07-27T05:24:15.499Z,26.9
2022-07-27T05:26:30.286Z,27.4
2022-07-27T05:28:45.074Z,26.9
2022-07-27T05:30:59.994Z,27
2022-07-27T05:33:14.947Z,27.1
2022-07-27T05:35:29.823Z,27.4
2022-07-27T05:37:44.926Z,27.8
2022-07-27T05:39:59.745Z,27.8
2022-07-27T05:42:14.925Z,27.8
2022-07-27T05:44:29.726Z,28.1
2022-07-27T05:48:59.749Z,27.9
2022-07-27T05:51:15.065Z,28.1
2022-07-27T05:53:29.692Z,28.2
2022-07-27T05:55:57.851Z,28.4
2022-07-27T05:58:01.108Z,28.7
2022-07-27T06:00:16.099Z,27.9
2022-07-27T06:02:30.804Z,28.9
2022-07-27T06:04:45.890Z,29.1
2022-07-27T06:07:00.528Z,28.6
2022-07-27T06:09:15.595Z,28.5
2022-07-27T06:11:30.253Z,28.5
2022-07-27T06:13:45.081Z,29
2022-07-27T06:15:59.979Z,29.8
2022-07-27T06:18:14.761Z,29.8
2022-07-27T06:20:29.685Z,29.1
2022-07-27T06:22:44.396Z,29.3
2022-07-27T06:24:59.363Z,29.4
2022-07-27T06:27:14.140Z,29.3
2022-07-27T06:29:29.044Z,29.6
2022-07-27T06:31:44.125Z,30.1
2022-07-27T06:34:00.408Z,30.4
2022-07-27T06:36:13.947Z,30.8
2022-07-27T06:38:29.347Z,29.7
2022-07-27T06:40:43.587Z,29.9
2022-07-27T06:42:58.789Z,30.1
2022-07-27T06:45:13.596Z,29.8
2022-07-27T06:47:29.030Z,30.4
2022-07-27T06:49:43.567Z,30.1
2022-07-27T06:51:58.559Z,30.8
2022-07-27T06:54:13.553Z,30.8
2022-07-27T06:56:28.535Z,30.8
2022-07-27T06:58:43.579Z,30.7
2022-07-27T07:01:00.410Z,30.4
2022-07-27T07:03:14.996Z,30.7
2022-07-27T07:05:29.937Z,31.8
2022-07-27T07:07:44.845Z,31.3
2022-07-27T07:09:59.649Z,30.8
2022-07-27T07:12:15.077Z,30.7
2022-07-27T07:14:29.231Z,31.8
2022-07-27T07:16:44.124Z,31.5
2022-07-27T07:18:58.515Z,32.6
2022-07-27T07:21:14.010Z,31.4
2022-07-27T07:23:28.721Z,32.9
2022-07-27T07:25:43.575Z,33.1
2022-07-27T07:27:58.487Z,32.6
2022-07-27T07:30:13.232Z,31.8
2022-07-27T07:32:33.363Z,31.9
2022-07-27T07:34:43.017Z,32.9
2022-07-27T07:37:17.545Z,32.6
2022-07-27T07:39:32.418Z,34.5
2022-07-27T07:42:01.798Z,33.2
2022-07-27T07:44:17.053Z,33.8
2022-07-27T07:46:31.617Z,33.9
2022-07-27T07:48:46.477Z,35.2
2022-07-27T07:51:01.255Z,35.4
2022-07-27T07:53:16.082Z,35.1
2022-07-27T07:55:30.960Z,34.9
2022-07-27T07:57:45.938Z,36.6
2022-07-27T08:00:00.090Z,37.4
2022-07-27T08:02:15.550Z,38
2022-07-27T08:04:30.329Z,38.6
2022-07-27T08:06:44.621Z,36.6
2022-07-27T08:08:59.917Z,38.6
2022-07-27T08:11:14.806Z,37.9
2022-07-27T08:13:29.697Z,38.6
2022-07-27T08:15:44.741Z,38.9
2022-07-27T08:17:59.463Z,40.4
2022-07-27T08:20:14.279Z,40.5
2022-07-27T08:22:28.572Z,40.6
2022-07-27T08:24:43.982Z,40.6
2022-07-27T08:26:58.797Z,41.4
2022-07-27T08:29:13.875Z,41.6
2022-07-27T08:31:51.806Z,42.6
2022-07-27T08:33:54.839Z,42.9
2022-07-27T08:36:09.875Z,42.1
2022-07-27T08:38:24.684Z,42.9
2022-07-27T08:41:41.397Z,42.5
2022-07-27T08:43:55.540Z,41.9
2022-07-27T08:46:10.274Z,41.3
2022-07-27T08:48:24.945Z,41.6
2022-07-27T08:50:43.406Z,40.8
2022-07-27T08:52:58.399Z,41.7
2022-07-27T08:55:25.266Z,43.4
2022-07-27T08:57:40.077Z,44.1
2022-07-27T08:59:54.967Z,45
2022-07-27T09:02:10.036Z,45.1
2022-07-27T09:04:24.716Z,45.8
2022-07-27T09:06:39.486Z,46.4
2022-07-27T09:08:54.476Z,47
2022-07-27T09:11:09.122Z,46.6
2022-07-27T09:13:24.942Z,46.9
2022-07-27T09:15:48.984Z,46.2
2022-07-27T09:19:10.967Z,46.4
2022-07-27T09:21:24.774Z,47.2
2022-07-27T09:23:40.335Z,45.4
2022-07-27T09:26:34.739Z,45.3
2022-07-27T09:28:49.124Z,45.3
2022-07-27T09:31:03.861Z,44.8
2022-07-27T09:33:24.086Z,44.1
2022-07-27T09:35:38.944Z,43.4
2022-07-27T09:37:53.792Z,45
2022-07-27T09:40:08.664Z,43.6
2022-07-27T09:43:03.770Z,42.2
2022-07-27T09:46:14.959Z,41.4
2022-07-27T09:48:29.690Z,40.4
2022-07-27T09:51:01.707Z,40.6
